Time;durP1;ratioP1;P1;durP2;ratioP2;P2;SDS_P1;SDS_P2;PMS_P1;PMS_P2;Temp;Humidity;BMP_temperature;BMP_pressure;BME280_temperature;BME280_humidity;BME280_pressure;Samples;Min_cycle;Max_cycle;Signal;HPM_P1;HPM_P2
2023/04/14 00:15:34;;;;;;;18.73;13.03;;;7.80;99.90;;;;;;4488264;31;20252;-84
2023/04/14 00:40:49;;;;;;;18.43;14.27;;;8.00;99.90;;;;;;4510032;30;20215;-83
2023/04/14 01:00:38;;;;;;;15.30;13.13;;;8.00;99.90;;;;;;4482669;30;20485;-85
2023/04/14 01:31:34;;;;;;;19.50;13.10;;;7.10;99.90;;;;;;4497890;30;20292;-83
2023/04/14 01:51:48;;;;;;;21.17;15.13;;;6.60;99.90;;;;;;4472957;31;20291;-86
2023/04/14 02:22:08;;;;;;;22.27;16.23;;;7.50;99.90;;;;;;4538373;30;20265;-85
2023/04/14 03:23:10;;;;;;;37.43;28.00;;;7.20;99.90;;;;;;4586368;30;20221;-83
2023/04/14 03:53:45;;;;;;;29.33;20.10;;;7.20;99.90;;;;;;4707492;29;20198;-82
2023/04/14 03:58:07;;;;;;;28.83;20.17;;;7.20;99.90;;;;;;4605512;29;20255;-84
2023/04/14 04:18:30;;;;;;;33.17;22.17;;;7.20;99.90;;;;;;4503917;30;20820;-84
2023/04/14 04:49:32;;;;;;;61.97;25.40;;;7.70;99.90;;;;;;4517433;30;20305;-82
2023/04/14 04:53:52;;;;;;;54.37;24.80;;;7.60;99.90;;;;;;4431031;30;20806;-82
2023/04/14 05:19:14;;;;;;;40.27;24.77;;;8.10;99.90;;;;;;4476512;30;20385;-83
2023/04/14 05:40:13;;;;;;;35.30;22.13;;;8.70;99.90;;;;;;4488575;31;20277;-80
2023/04/14 06:04:56;;;;;;;27.80;19.97;;;9.30;99.90;;;;;;4477867;30;20710;-81
2023/04/14 06:30:17;;;;;;;20.50;15.40;;;10.00;99.90;;;;;;4435028;30;20711;-80
2023/04/14 06:46:03;;;;;;;16.80;13.23;;;11.00;99.90;;;;;;4472524;30;20271;-83
2023/04/14 07:06:32;;;;;;;12.93;10.93;;;11.10;99.90;;;;;;4457403;30;20297;-81
2023/04/14 07:36:31;;;;;;;10.87;7.70;;;12.70;99.90;;;;;;4347518;31;21174;-84
2023/04/14 08:02:17;;;;;;;10.13;8.40;;;13.30;98.50;;;;;;4356129;31;20328;-83
2023/04/14 08:27:44;;;;;;;8.57;7.27;;;14.00;94.90;;;;;;4436683;30;20788;-81
2023/04/14 08:52:41;;;;;;;7.30;5.97;;;14.10;94.40;;;;;;4437776;30;20562;-80
2023/04/14 09:13:18;;;;;;;7.87;6.80;;;13.80;96.50;;;;;;4580590;30;20643;-85
2023/04/14 09:33:25;;;;;;;9.80;6.10;;;14.00;96.80;;;;;;4417575;30;20670;-82
2023/04/14 09:58:22;;;;;;;10.20;6.37;;;14.00;95.60;;;;;;4446420;30;20664;-81
2023/04/14 10:19:01;;;;;;;7.40;6.70;;;14.30;94.10;;;;;;4510641;30;20429;-81
2023/04/14 10:54:52;;;;;;;6.70;5.97;;;15.30;90.80;;;;;;4543332;30;20532;-82
2023/04/14 11:20:16;;;;;;;5.10;4.67;;;14.50;90.80;;;;;;4491541;30;20249;-82
2023/04/14 11:45:23;;;;;;;5.00;3.97;;;15.30;88.50;;;;;;4428402;30;20641;-81
2023/04/14 12:10:45;;;;;;;4.23;3.40;;;15.50;87.00;;;;;;4495469;30;20331;-82
2023/04/14 12:46:30;;;;;;;2.53;2.33;;;16.10;82.00;;;;;;4554976;30;20207;-83
2023/04/14 13:16:18;;;;;;;4.07;3.30;;;15.50;85.30;;;;;;4564332;29;21365;-83
2023/04/14 13:42:14;;;;;;;3.60;3.30;;;16.70;78.30;;;;;;4504403;30;20218;-79
2023/04/14 14:01:58;;;;;;;3.47;2.57;;;16.20;78.20;;;;;;4441699;30;21040;-85
2023/04/14 14:33:01;;;;;;;2.73;2.53;;;16.40;77.60;;;;;;4530781;30;20273;-87
2023/04/14 14:58:07;;;;;;;4.37;3.97;;;16.60;74.70;;;;;;4637030;30;20219;-84
2023/04/14 15:18:34;;;;;;;2.93;2.73;;;15.70;77.90;;;;;;4600706;30;20282;-85
2023/04/14 15:48:50;;;;;;;6.63;4.40;;;14.80;84.60;;;;;;4542126;30;20278;-86
2023/04/14 16:09:21;;;;;;;9.23;4.90;;;14.60;86.30;;;;;;4634005;30;20227;-84
2023/04/14 16:39:13;;;;;;;6.83;3.80;;;14.00;88.50;;;;;;4634598;29;21421;-86
2023/04/14 17:05:14;;;;;;;4.43;3.23;;;13.50;89.50;;;;;;4669620;29;20395;-86
2023/04/14 17:25:06;;;;;;;6.57;4.80;;;12.90;91.40;;;;;;4539491;30;20805;-85
2023/04/14 17:45:36;;;;;;;7.50;6.43;;;12.60;92.40;;;;;;4464424;30;20740;-84
2023/04/14 18:36:21;;;;;;;7.83;7.03;;;11.90;93.50;;;;;;4921763;28;20846;-84
2023/04/14 19:06:48;;;;;;;7.07;5.63;;;11.60;93.80;;;;;;4881682;28;20234;-85
2023/04/14 19:37:27;;;;;;;10.80;7.77;;;11.70;92.30;;;;;;4820537;29;20249;-83
2023/04/14 19:41:47;;;;;;;9.37;6.63;;;11.60;92.40;;;;;;4714452;29;20733;-85
2023/04/14 20:02:35;;;;;;;8.83;7.70;;;11.40;93.40;;;;;;4752530;29;20209;-85
2023/04/14 20:23:00;;;;;;;8.97;6.83;;;11.20;94.60;;;;;;4616476;30;20216;-84
2023/04/14 20:48:14;;;;;;;8.97;6.37;;;11.20;94.10;;;;;;4666752;30;20280;-86
2023/04/14 21:44:19;;;;;;;11.23;9.13;;;10.90;96.40;;;;;;4727728;29;20264;-84
2023/04/14 21:48:37;;;;;;;8.43;6.83;;;10.80;96.50;;;;;;4680627;29;20567;-80
2023/04/14 22:09:15;;;;;;;11.37;9.47;;;10.90;96.40;;;;;;4632902;29;20269;-83
2023/04/14 22:34:39;;;;;;;12.50;9.03;;;10.80;96.60;;;;;;4576759;30;20340;-86
2023/04/14 23:00:15;;;;;;;11.10;8.93;;;10.90;96.50;;;;;;4699254;29;21294;-83
2023/04/14 23:30:05;;;;;;;9.80;8.47;;;10.80;98.00;;;;;;4722130;29;20224;-87
2023/04/14 23:55:23;;;;;;;11.40;9.50;;;10.80;99.30;;;;;;4624480;30;20662;-84
